Time;durP1;ratioP1;P1;durP2;ratioP2;P2;SDS_P1;SDS_P2;PMS_P1;PMS_P2;Temp;Humidity;BMP_temperature;BMP_pressure;BME280_temperature;BME280_humidity;BME280_pressure;Samples;Min_cycle;Max_cycle;Signal;HPM_P1;HPM_P2
2021/08/16 00:01:40;;;;;;;6.88;6.07;;;;;;;22.49;40.65;94001.47;4972231;28;21095;-74
2021/08/16 00:04:05;;;;;;;6.25;5.65;;;;;;;22.48;39.39;94008.06;4975035;28;20984;-75
2021/08/16 00:06:31;;;;;;;9.95;6.55;;;;;;;22.45;40.30;93995.25;4972957;28;20038;-75
2021/08/16 00:08:56;;;;;;;9.43;7.43;;;;;;;22.30;40.10;93981.69;4970602;28;20877;-75
2021/08/16 00:11:21;;;;;;;10.23;6.70;;;;;;;22.24;40.86;93991.34;4985903;28;20635;-75
2021/08/16 00:13:47;;;;;;;11.43;6.78;;;;;;;22.19;40.39;93978.13;4976044;28;20022;-75
2021/08/16 00:16:12;;;;;;;11.25;6.82;;;;;;;22.28;40.83;93996.78;4973773;28;20514;-74
2021/08/16 00:18:38;;;;;;;7.57;5.95;;;;;;;22.26;40.29;93994.44;4976497;28;20524;-74
2021/08/16 00:21:03;;;;;;;7.47;6.57;;;;;;;22.23;40.80;94000.66;4970798;28;20052;-74
2021/08/16 00:23:29;;;;;;;7.80;6.28;;;;;;;22.17;40.90;93993.22;4976217;28;20105;-74
2021/08/16 00:25:55;;;;;;;7.15;6.45;;;;;;;22.00;40.12;93997.41;4971558;28;20031;-75
2021/08/16 00:28:21;;;;;;;8.38;6.28;;;;;;;21.78;39.67;93979.53;4969590;28;20034;-74
2021/08/16 00:30:47;;;;;;;9.30;6.70;;;;;;;21.98;40.44;93988.91;4972489;28;20440;-76
2021/08/16 00:33:12;;;;;;;8.30;6.80;;;;;;;21.91;41.05;93993.50;4977715;28;20472;-75
2021/08/16 00:35:38;;;;;;;9.35;7.13;;;;;;;21.88;41.05;93984.22;4972203;28;20042;-77
2021/08/16 00:38:04;;;;;;;8.77;6.50;;;;;;;22.04;40.11;93998.22;4971700;28;20057;-75
2021/08/16 00:40:30;;;;;;;8.30;6.88;;;;;;;22.08;40.45;94003.66;4975226;28;20072;-74
2021/08/16 00:42:56;;;;;;;7.80;6.35;;;;;;;22.16;40.09;93997.88;4972237;28;20030;-74
2021/08/16 00:45:21;;;;;;;11.05;6.57;;;;;;;21.88;40.86;93985.00;4969243;28;20491;-75
2021/08/16 00:47:47;;;;;;;7.72;6.30;;;;;;;21.95;40.24;93989.66;4976341;28;20520;-76
2021/08/16 00:50:13;;;;;;;8.68;6.28;;;;;;;22.06;39.80;93992.41;4973476;28;20042;-75
2021/08/16 00:52:41;;;;;;;8.20;5.65;;;;;;;22.11;39.76;93983.91;4975468;28;20051;-75
2021/08/16 00:55:09;;;;;;;8.13;6.70;;;;;;;21.94;40.17;93973.81;4967186;28;20034;-75
2021/08/16 00:57:35;;;;;;;8.90;6.78;;;;;;;21.95;39.76;93984.22;4972844;28;20177;-75
2021/08/16 01:00:09;;;;;;;8.77;5.95;;;;;;;21.59;39.44;93928.41;4991348;28;20034;-75
2021/08/16 01:02:37;;;;;;;7.22;6.50;;;;;;;21.71;39.44;93957.84;4973186;28;20042;-75
2021/08/16 01:05:06;;;;;;;7.72;6.28;;;;;;;21.98;39.77;93994.31;4975663;28;20085;-75
2021/08/16 01:07:33;;;;;;;7.97;6.07;;;;;;;21.92;40.35;93990.41;4970319;28;20077;-75
2021/08/16 01:09:59;;;;;;;6.72;6.10;;;;;;;21.89;40.07;93996.59;4976685;28;20053;-75
2021/08/16 01:12:25;;;;;;;7.10;6.40;;;;;;;21.92;39.65;93989.66;4973462;28;20050;-76
2021/08/16 01:14:50;;;;;;;8.10;5.72;;;;;;;21.75;39.90;93980.31;4975938;28;20046;-74
2021/08/16 01:17:16;;;;;;;7.10;6.38;;;;;;;21.80;40.25;93993.47;4972687;28;20050;-74
2021/08/16 01:19:41;;;;;;;6.82;6.10;;;;;;;21.75;39.94;93983.78;4974805;28;20038;-74
2021/08/16 01:22:07;;;;;;;7.03;6.28;;;;;;;21.85;39.52;93995.81;4973451;28;20639;-74
2021/08/16 01:24:33;;;;;;;9.05;6.05;;;;;;;21.76;39.41;93982.59;4973805;28;20930;-75
2021/08/16 01:27:07;;;;;;;7.22;6.53;;;;;;;21.74;40.22;93984.16;4974674;28;20129;-74
2021/08/16 01:29:32;;;;;;;6.90;6.18;;;;;;;21.78;39.98;94001.19;4974260;28;20147;-76
2021/08/16 01:32:02;;;;;;;7.47;6.38;;;;;;;21.76;40.34;93990.72;4976929;28;20468;-74
2021/08/16 01:34:29;;;;;;;9.68;6.57;;;;;;;21.72;40.17;93995.34;4975854;28;20031;-75
2021/08/16 01:36:55;;;;;;;8.57;5.90;;;;;;;21.70;40.21;93977.97;4979512;28;20517;-74
2021/08/16 01:39:21;;;;;;;10.00;6.53;;;;;;;21.71;40.48;93990.31;4977892;28;20125;-74
2021/08/16 01:41:48;;;;;;;7.20;6.53;;;;;;;21.58;40.55;93984.47;4972176;28;20048;-74
2021/08/16 01:44:15;;;;;;;9.48;6.35;;;;;;;21.55;40.40;93968.22;4975543;28;20563;-74
2021/08/16 01:46:42;;;;;;;7.45;6.25;;;;;;;21.64;40.39;93974.84;4976941;28;20520;-74
2021/08/16 01:49:08;;;;;;;8.48;5.95;;;;;;;21.61;40.22;93980.22;4976578;28;20536;-75
2021/08/16 01:51:35;;;;;;;7.88;6.45;;;;;;;21.57;41.19;93984.81;4978984;28;20046;-75
2021/08/16 01:54:00;;;;;;;8.40;7.03;;;;;;;21.43;41.18;93980.88;4978658;28;20038;-75
2021/08/16 01:56:26;;;;;;;6.97;6.25;;;;;;;21.57;40.63;93982.13;4990792;28;20045;-75
2021/08/16 01:58:52;;;;;;;9.43;6.15;;;;;;;21.45;41.11;93983.19;4974996;28;20038;-75
2021/08/16 02:01:17;;;;;;;9.63;6.50;;;;;;;21.37;41.07;93978.88;4979626;28;20493;-74
2021/08/16 02:03:42;;;;;;;7.68;6.47;;;;;;;21.30;41.33;93979.63;4977795;28;20050;-75
2021/08/16 02:06:08;;;;;;;7.20;6.45;;;;;;;21.30;41.54;93982.34;4976020;28;20169;-74
2021/08/16 02:08:33;;;;;;;7.82;7.03;;;;;;;21.30;41.78;93982.34;4978175;28;20129;-74
2021/08/16 02:10:59;;;;;;;9.68;7.53;;;;;;;21.12;41.16;93965.19;4975427;28;20026;-73
2021/08/16 02:13:24;;;;;;;7.28;6.57;;;;;;;21.23;41.65;93974.16;4976287;28;20026;-74
2021/08/16 02:15:49;;;;;;;10.43;7.28;;;;;;;21.10;41.74;93962.09;4974945;28;20579;-75
2021/08/16 02:18:15;;;;;;;7.40;6.65;;;;;;;21.09;42.17;93965.94;4977142;28;20054;-75
2021/08/16 02:20:40;;;;;;;8.60;5.90;;;;;;;21.02;41.77;93960.50;4975854;28;20046;-75
2021/08/16 02:23:06;;;;;;;7.38;6.25;;;;;;;21.07;41.68;93984.47;4976943;28;20038;-74
2021/08/16 02:25:32;;;;;;;7.38;6.68;;;;;;;21.10;41.32;93983.72;4977218;28;20442;-75
2021/08/16 02:27:57;;;;;;;10.13;6.82;;;;;;;21.07;41.42;93973.66;4976482;28;20046;-74
2021/08/16 02:30:23;;;;;;;8.75;7.20;;;;;;;21.16;41.62;93984.16;4974158;28;20505;-75
2021/08/16 02:32:48;;;;;;;8.02;6.28;;;;;;;21.12;41.74;93981.41;4979557;28;20473;-76
2021/08/16 02:35:14;;;;;;;7.55;6.40;;;;;;;21.11;42.04;93979.09;4975269;28;20509;-74
2021/08/16 02:37:40;;;;;;;7.07;6.47;;;;;;;21.01;41.97;93991.41;4979952;28;20037;-75
2021/08/16 02:40:07;;;;;;;7.80;6.93;;;;;;;21.01;42.16;93986.00;4974092;28;20693;-74
2021/08/16 02:42:32;;;;;;;9.93;6.95;;;;;;;20.99;41.99;93985.56;4975719;28;20153;-74
2021/08/16 02:44:58;;;;;;;7.13;6.43;;;;;;;21.03;41.44;93994.47;4974657;28;20451;-74
2021/08/16 02:47:24;;;;;;;7.72;6.95;;;;;;;20.65;41.63;93938.16;4978225;28;20038;-74
2021/08/16 02:49:50;;;;;;;6.90;6.28;;;;;;;20.94;41.53;93985.91;4974844;28;20753;-76
2021/08/16 02:52:17;;;;;;;8.52;6.60;;;;;;;20.93;41.09;93984.34;4975807;28;20018;-74
2021/08/16 02:54:43;;;;;;;6.78;6.18;;;;;;;20.94;41.18;93985.91;4973542;28;20042;-74
2021/08/16 02:57:09;;;;;;;7.38;6.30;;;;;;;20.82;41.44;93965.34;4972914;28;20333;-74
2021/08/16 02:59:34;;;;;;;8.63;6.93;;;;;;;20.85;41.69;93982.72;4975683;28;20436;-73
2021/08/16 03:02:00;;;;;;;8.88;6.35;;;;;;;20.77;41.12;93970.31;4976906;28;20502;-75
2021/08/16 03:04:25;;;;;;;7.15;6.45;;;;;;;20.90;41.40;93980.50;4975953;28;20057;-75
2021/08/16 03:06:51;;;;;;;7.90;6.53;;;;;;;20.79;41.46;93973.41;4975885;28;20504;-74
2021/08/16 03:09:16;;;;;;;9.23;7.20;;;;;;;20.84;40.88;93964.94;4975003;28;20038;-74
2021/08/16 03:11:41;;;;;;;7.65;6.85;;;;;;;20.67;40.51;93942.06;4974582;28;20042;-75
2021/08/16 03:14:07;;;;;;;8.43;7.03;;;;;;;20.86;41.25;93984.28;4977193;28;20362;-75
2021/08/16 03:16:32;;;;;;;6.50;5.85;;;;;;;20.80;41.31;93983.84;4976677;28;20034;-75
2021/08/16 03:18:58;;;;;;;6.88;6.00;;;;;;;20.43;41.07;93919.06;4976123;28;20515;-75
2021/08/16 03:21:23;;;;;;;7.85;6.07;;;;;;;20.82;41.31;93973.44;4975577;28;20062;-74
2021/08/16 03:23:49;;;;;;;6.68;6.07;;;;;;;20.66;40.74;93950.53;4974860;28;20073;-74
2021/08/16 03:26:14;;;;;;;8.07;6.43;;;;;;;20.71;40.81;93967.16;4973938;28;20045;-75
2021/08/16 03:28:39;;;;;;;7.65;6.47;;;;;;;20.79;40.79;93973.41;4976066;28;20034;-74
2021/08/16 03:31:05;;;;;;;11.00;6.60;;;;;;;20.71;40.88;93972.56;4973775;28;20054;-74
2021/08/16 03:33:30;;;;;;;6.47;5.88;;;;;;;20.70;40.87;93981.81;4976677;28;20088;-74
2021/08/16 03:35:56;;;;;;;6.88;6.18;;;;;;;20.70;40.69;93964.84;4975358;28;20045;-74
2021/08/16 03:38:21;;;;;;;7.50;6.35;;;;;;;20.76;40.91;93984.97;4975817;28;20061;-75
2021/08/16 03:40:46;;;;;;;9.20;7.03;;;;;;;20.67;41.03;93973.69;4975335;28;20379;-76
2021/08/16 03:43:12;;;;;;;7.10;6.40;;;;;;;20.72;41.50;93987.66;4969816;28;20375;-75
2021/08/16 03:45:37;;;;;;;8.27;6.88;;;;;;;20.68;41.88;93986.81;4977347;28;20036;-74
2021/08/16 03:48:03;;;;;;;9.00;6.68;;;;;;;20.50;42.16;93981.25;4975113;28;20381;-75
2021/08/16 03:50:28;;;;;;;10.02;7.43;;;;;;;20.22;42.51;93945.09;4978343;28;20031;-74
2021/08/16 03:52:54;;;;;;;7.97;7.07;;;;;;;20.49;42.50;93987.81;4969225;28;20037;-74
2021/08/16 03:55:19;;;;;;;8.32;7.28;;;;;;;20.59;42.44;93989.84;4971901;28;20033;-74
2021/08/16 03:57:44;;;;;;;8.35;6.05;;;;;;;20.54;42.63;93973.19;4975917;28;20049;-74
2021/08/16 04:00:11;;;;;;;7.15;6.45;;;;;;;20.37;43.44;93979.97;4975990;28;20026;-75
2021/08/16 04:02:40;;;;;;;10.65;6.43;;;;;;;20.43;43.13;93983.91;4971376;28;20444;-75
2021/08/16 04:05:06;;;;;;;9.25;6.30;;;;;;;20.48;42.64;93986.25;4972796;28;20496;-74
2021/08/16 04:07:31;;;;;;;11.10;7.05;;;;;;;20.56;43.10;93977.06;4971183;28;20049;-74
2021/08/16 04:09:57;;;;;;;8.10;7.05;;;;;;;20.55;43.71;93997.13;4971716;28;20050;-74
2021/08/16 04:12:23;;;;;;;9.18;7.20;;;;;;;20.46;43.01;93983.16;4973565;28;20034;-74
2021/08/16 04:14:49;;;;;;;7.70;6.85;;;;;;;20.58;43.47;94004.47;4975125;28;20061;-74
2021/08/16 04:17:14;;;;;;;6.78;6.10;;;;;;;20.71;42.33;94004.22;4974427;28;20375;-74
2021/08/16 04:19:40;;;;;;;9.13;7.53;;;;;;;20.71;42.79;94005.00;4977554;28;20026;-74
2021/08/16 04:22:05;;;;;;;8.57;7.13;;;;;;;20.77;41.49;94002.75;4974791;28;20129;-75
2021/08/16 04:24:31;;;;;;;8.95;7.22;;;;;;;20.98;41.55;93998.31;4973892;28;20038;-74
2021/08/16 04:26:56;;;;;;;8.05;7.22;;;;;;;20.87;41.16;93992.06;4974294;28;20065;-75
2021/08/16 04:29:22;;;;;;;10.00;7.47;;;;;;;20.86;40.70;93963.44;4976681;28;20066;-75
2021/08/16 04:31:47;;;;;;;10.85;6.68;;;;;;;21.18;40.74;94000.78;4973815;28;20041;-74
2021/08/16 04:34:12;;;;;;;9.55;7.10;;;;;;;21.37;39.98;94006.72;4973679;28;20113;-75
2021/08/16 04:36:38;;;;;;;8.65;7.07;;;;;;;21.29;39.88;93986.19;4972805;28;20394;-75
2021/08/16 04:39:03;;;;;;;10.82;7.43;;;;;;;21.39;40.25;93982.78;4972173;28;20066;-74
2021/08/16 04:41:29;;;;;;;10.38;7.70;;;;;;;21.51;40.18;93997.16;4976315;28;20456;-74
2021/08/16 04:43:54;;;;;;;12.23;8.35;;;;;;;21.57;39.99;93990.25;4987889;28;20512;-75
2021/08/16 04:46:20;;;;;;;14.13;7.70;;;;;;;21.66;39.90;93994.16;4976739;28;20080;-75
2021/08/16 04:48:45;;;;;;;11.05;8.35;;;;;;;21.78;39.18;93998.47;4973291;28;20042;-75
2021/08/16 04:51:11;;;;;;;12.27;8.10;;;;;;;21.91;39.16;93994.28;4972272;28;20400;-75
2021/08/16 04:53:36;;;;;;;10.23;7.43;;;;;;;21.85;39.25;93996.56;4976061;28;20051;-74
2021/08/16 04:56:02;;;;;;;10.65;6.93;;;;;;;22.07;38.91;94011.00;4974295;28;20038;-75
2021/08/16 04:58:27;;;;;;;11.05;7.18;;;;;;;21.67;39.43;93994.94;4976217;28;20045;-75
2021/08/16 05:00:52;;;;;;;12.40;7.95;;;;;;;21.74;39.70;93986.88;4972762;28;20114;-74
2021/08/16 05:03:18;;;;;;;12.70;8.35;;;;;;;21.76;39.09;93995.38;4974521;28;20038;-74
2021/08/16 05:05:49;;;;;;;13.45;8.18;;;;;;;21.82;39.79;94007.38;4979740;28;20138;-75
2021/08/16 05:08:15;;;;;;;10.45;8.02;;;;;;;22.09;38.82;94007.91;4977027;28;20038;-74
2021/08/16 05:10:41;;;;;;;9.38;7.65;;;;;;;22.24;37.63;94013.00;4975512;28;20034;-74
2021/08/16 05:13:06;;;;;;;9.70;7.72;;;;;;;22.16;37.88;94008.69;4974036;28;20145;-74
2021/08/16 05:15:32;;;;;;;9.93;7.68;;;;;;;21.93;38.25;93981.16;4974978;28;20043;-74
2021/08/16 05:18:02;;;;;;;15.00;8.55;;;;;;;22.22;38.41;94023.47;4976199;28;20053;-75
2021/08/16 05:20:28;;;;;;;8.38;7.57;;;;;;;22.19;38.62;94015.31;4974444;28;20062;-74
2021/08/16 05:22:53;;;;;;;10.85;7.95;;;;;;;22.33;38.68;94020.03;4974988;28;20445;-74
2021/08/16 05:25:19;;;;;;;16.42;8.57;;;;;;;22.29;38.71;94009.94;4977550;28;20058;-74
2021/08/16 05:27:47;;;;;;;14.90;7.65;;;;;;;22.26;38.35;93997.16;4977242;28;20049;-74
2021/08/16 05:30:13;;;;;;;9.82;7.95;;;;;;;22.27;38.62;94020.38;4975060;28;20544;-74
2021/08/16 05:32:38;;;;;;;14.57;8.13;;;;;;;22.33;38.72;94011.88;4978055;28;20046;-74
2021/08/16 05:35:05;;;;;;;17.15;8.73;;;;;;;22.35;39.37;94017.69;4972630;28;20034;-75
2021/08/16 05:37:31;;;;;;;14.27;8.43;;;;;;;22.42;39.06;94023.91;4979017;28;20076;-75
2021/08/16 05:39:56;;;;;;;11.02;8.80;;;;;;;22.50;38.41;94016.56;4976794;28;20054;-75
2021/08/16 05:42:22;;;;;;;13.38;8.88;;;;;;;22.71;37.72;94013.91;4978448;28;20069;-75
2021/08/16 05:44:47;;;;;;;13.77;9.20;;;;;;;22.68;38.58;94011.97;4977033;28;20042;-75
2021/08/16 05:47:12;;;;;;;16.73;9.48;;;;;;;22.79;38.62;94026.31;4974477;28;20038;-74
2021/08/16 05:49:38;;;;;;;17.83;9.32;;;;;;;22.69;38.42;94016.22;4977065;28;20026;-74
2021/08/16 05:52:04;;;;;;;15.98;10.10;;;;;;;22.79;38.60;94020.13;4973872;28;20045;-74
2021/08/16 05:54:29;;;;;;;11.27;8.57;;;;;;;22.78;38.56;94019.34;4974360;28;20112;-75
2021/08/16 05:56:54;;;;;;;17.10;8.77;;;;;;;22.91;37.95;94020.56;4975232;28;20452;-75
2021/08/16 05:59:20;;;;;;;16.83;9.05;;;;;;;23.07;37.74;94009.34;4975742;28;20034;-75
2021/08/16 06:01:46;;;;;;;18.58;9.25;;;;;;;23.26;37.98;94013.59;4976931;28;20089;-75
2021/08/16 06:04:11;;;;;;;16.10;9.73;;;;;;;23.24;37.20;94008.53;4978416;28;20030;-73
2021/08/16 06:06:37;;;;;;;17.70;9.38;;;;;;;23.37;37.73;94012.41;4976943;28;20038;-75
2021/08/16 06:09:03;;;;;;;20.40;10.32;;;;;;;23.48;36.89;94012.41;4976624;28;20062;-76
2021/08/16 06:11:29;;;;;;;20.08;9.98;;;;;;;23.38;37.54;93997.69;4972240;28;20048;-76
2021/08/16 06:13:55;;;;;;;22.80;10.93;;;;;;;23.36;37.66;93993.81;4976070;28;20435;-75
2021/08/16 06:16:20;;;;;;;19.70;10.18;;;;;;;23.64;37.14;94010.09;4973521;28;20026;-74
2021/08/16 06:18:46;;;;;;;14.25;8.43;;;;;;;23.65;37.12;94019.00;4978559;28;20101;-73
2021/08/16 06:21:11;;;;;;;18.30;9.38;;;;;;;23.59;36.67;93991.47;4975490;28;20043;-74
2021/08/16 06:23:37;;;;;;;12.73;9.95;;;;;;;23.72;36.26;94022.47;4976765;28;20045;-74
2021/08/16 06:26:03;;;;;;;15.32;8.90;;;;;;;23.62;36.47;94011.63;4976157;28;20043;-74
2021/08/16 06:28:29;;;;;;;13.50;8.90;;;;;;;23.75;36.98;94027.13;4975360;28;20041;-75
2021/08/16 06:30:55;;;;;;;13.65;8.80;;;;;;;23.72;35.60;94010.81;4969414;28;20038;-75
2021/08/16 06:33:20;;;;;;;13.07;9.90;;;;;;;23.84;35.92;94021.28;4976548;28;20046;-75
2021/08/16 06:35:47;;;;;;;16.50;9.80;;;;;;;23.77;35.59;94008.50;4974520;28;20069;-75
2021/08/16 06:38:21;;;;;;;15.98;8.65;;;;;;;23.79;36.04;94021.69;4973515;28;20396;-75
2021/08/16 06:40:49;;;;;;;13.50;9.38;;;;;;;23.58;36.02;94027.94;4973104;28;20026;-75
2021/08/16 06:43:14;;;;;;;12.18;9.55;;;;;;;23.61;35.91;94010.88;4972169;28;20045;-74
2021/08/16 06:45:40;;;;;;;14.68;9.45;;;;;;;23.71;36.76;94015.47;4975150;28;20604;-74
2021/08/16 06:48:05;;;;;;;19.45;9.52;;;;;;;23.92;36.28;94031.72;4972697;28;20049;-74
2021/08/16 06:50:31;;;;;;;15.82;8.30;;;;;;;24.01;36.46;94021.22;4977208;28;20540;-75
2021/08/16 06:52:56;;;;;;;13.57;8.32;;;;;;;24.07;36.06;94018.09;4974375;28;20018;-75
2021/08/16 06:55:21;;;;;;;20.75;9.45;;;;;;;24.13;35.61;94019.28;4978300;28;20318;-75
2021/08/16 06:57:47;;;;;;;23.73;8.68;;;;;;;24.35;35.40;94020.72;4970720;28;20445;-75
2021/08/16 07:00:13;;;;;;;18.67;8.55;;;;;;;24.46;35.47;94016.03;4973316;28;20030;-75
2021/08/16 07:02:39;;;;;;;16.67;8.65;;;;;;;24.57;34.89;94022.19;4969433;28;20520;-74
2021/08/16 07:05:07;;;;;;;11.48;7.60;;;;;;;24.68;34.41;94022.91;4976629;28;21584;-74
2021/08/16 07:07:32;;;;;;;16.77;9.23;;;;;;;24.76;35.22;94013.56;4974433;28;20041;-75
2021/08/16 07:09:58;;;;;;;12.82;8.07;;;;;;;24.78;34.71;94011.19;4972920;28;20048;-75
2021/08/16 07:12:24;;;;;;;16.92;8.90;;;;;;;24.87;35.04;94018.16;4974300;28;20071;-75
2021/08/16 07:14:50;;;;;;;10.35;8.80;;;;;;;25.04;33.96;94033.56;4975270;28;20454;-74
2021/08/16 07:17:15;;;;;;;17.23;8.05;;;;;;;24.99;34.43;94032.03;4974671;28;20042;-74
2021/08/16 07:19:40;;;;;;;18.13;8.20;;;;;;;24.76;34.78;94024.44;4977110;28;20058;-76
2021/08/16 07:22:06;;;;;;;13.35;6.93;;;;;;;24.72;34.33;94020.97;4974480;28;20054;-75
2021/08/16 07:24:32;;;;;;;13.48;8.48;;;;;;;24.47;34.98;94025.72;4974311;28;20062;-74
2021/08/16 07:26:58;;;;;;;16.63;8.45;;;;;;;24.25;35.13;93999.81;4975715;28;20469;-75
2021/08/16 07:29:25;;;;;;;13.90;8.25;;;;;;;24.42;35.18;94020.72;4977001;28;20485;-75
2021/08/16 07:31:51;;;;;;;14.30;9.15;;;;;;;24.64;35.21;94029.50;4975682;28;20235;-75
2021/08/16 07:34:16;;;;;;;15.30;8.80;;;;;;;24.60;35.04;94010.50;4974723;28;20491;-75
2021/08/16 07:36:41;;;;;;;14.07;9.52;;;;;;;24.75;34.77;94014.72;4976557;28;20072;-76
2021/08/16 07:39:07;;;;;;;13.57;8.13;;;;;;;24.97;35.00;94028.19;4974475;28;20153;-76
2021/08/16 07:41:32;;;;;;;13.35;8.43;;;;;;;24.90;34.43;94006.47;4974418;28;20211;-75
2021/08/16 07:43:57;;;;;;;11.63;8.27;;;;;;;25.01;34.33;94018.81;4970236;28;20062;-77
2021/08/16 07:46:23;;;;;;;11.20;8.70;;;;;;;25.10;34.11;94027.31;4975527;28;20073;-76
2021/08/16 07:48:48;;;;;;;15.80;9.00;;;;;;;25.09;35.08;94008.66;4972027;28;20343;-77
2021/08/16 07:51:14;;;;;;;16.92;8.18;;;;;;;25.19;34.21;94024.91;4974314;28;20034;-77
2021/08/16 07:53:42;;;;;;;11.75;8.18;;;;;;;25.09;33.86;94003.97;4974223;28;20545;-77
2021/08/16 07:56:08;;;;;;;11.95;7.88;;;;;;;25.16;34.23;94003.16;4973924;28;20034;-75
2021/08/16 07:58:33;;;;;;;11.07;8.68;;;;;;;25.22;35.19;94001.56;4976026;28;20381;-76
2021/08/16 08:00:58;;;;;;;14.02;8.90;;;;;;;25.09;33.41;93986.88;4971914;28;20672;-76
2021/08/16 08:03:25;;;;;;;10.35;8.43;;;;;;;25.14;34.14;94006.28;4990316;28;20877;-76
2021/08/16 08:05:50;;;;;;;15.95;8.75;;;;;;;25.33;32.92;94015.09;4971989;28;20432;-75
2021/08/16 08:08:16;;;;;;;12.75;8.55;;;;;;;25.31;34.26;94015.50;4975093;28;20434;-75
2021/08/16 08:10:41;;;;;;;12.25;8.77;;;;;;;25.40;34.28;93996.75;4972273;28;20035;-75
2021/08/16 08:13:07;;;;;;;17.70;9.60;;;;;;;25.57;33.53;93995.03;4973268;28;20042;-75
2021/08/16 08:15:32;;;;;;;12.48;8.60;;;;;;;25.79;33.19;94009.22;4975593;28;20038;-74
2021/08/16 08:17:57;;;;;;;13.43;8.05;;;;;;;25.88;33.12;93995.88;4970692;28;20132;-75
2021/08/16 08:20:23;;;;;;;14.93;8.82;;;;;;;25.86;33.03;94006.44;4972179;28;20047;-74
2021/08/16 08:22:49;;;;;;;12.27;8.52;;;;;;;25.62;32.68;93992.66;4975078;28;20030;-75
2021/08/16 08:25:14;;;;;;;16.17;7.60;;;;;;;25.63;32.71;94005.09;4974705;28;20041;-74
2021/08/16 08:27:40;;;;;;;14.90;8.20;;;;;;;25.72;32.54;93991.00;4972861;28;20053;-74
2021/08/16 08:30:08;;;;;;;18.27;8.45;;;;;;;26.08;33.84;93997.63;4969368;28;20211;-75
2021/08/16 08:32:43;;;;;;;10.98;7.63;;;;;;;26.11;32.26;93990.59;4972037;28;20046;-75
2021/08/16 08:35:08;;;;;;;12.13;7.68;;;;;;;26.07;31.68;93989.84;4988885;28;20098;-74
2021/08/16 08:37:34;;;;;;;11.13;7.75;;;;;;;26.23;32.82;93983.84;4973999;28;20185;-75
2021/08/16 08:39:59;;;;;;;11.98;7.30;;;;;;;26.30;32.03;93998.13;4978602;28;20034;-74
2021/08/16 08:42:25;;;;;;;13.20;7.68;;;;;;;26.21;31.82;93973.31;4976155;28;20598;-75
2021/08/16 08:44:50;;;;;;;8.40;6.55;;;;;;;26.26;31.62;93974.81;4979332;28;20068;-75
2021/08/16 08:47:16;;;;;;;11.85;6.82;;;;;;;26.42;31.95;93978.50;4974583;28;20109;-75
2021/08/16 08:49:41;;;;;;;11.50;7.10;;;;;;;26.40;31.73;93980.88;4977309;28;20022;-74
2021/08/16 08:52:07;;;;;;;8.00;7.20;;;;;;;26.33;31.65;93975.53;4979264;28;20068;-74
2021/08/16 08:54:35;;;;;;;19.23;7.22;;;;;;;26.47;31.12;93980.81;4978919;28;20050;-74
2021/08/16 08:57:01;;;;;;;9.10;6.72;;;;;;;26.53;31.54;93979.19;4977007;28;20460;-74
2021/08/16 08:59:26;;;;;;;9.20;6.10;;;;;;;26.72;32.26;93979.69;4975232;28;20051;-74
2021/08/16 09:01:57;;;;;;;11.48;6.55;;;;;;;26.65;30.92;93968.88;4991269;28;20169;-74
2021/08/16 09:04:23;;;;;;;11.65;7.45;;;;;;;26.84;30.45;93968.19;4977663;28;20065;-74
2021/08/16 09:06:49;;;;;;;9.38;6.38;;;;;;;26.64;30.84;93978.25;4977346;28;20046;-75
2021/08/16 09:09:16;;;;;;;11.00;6.93;;;;;;;26.95;30.88;93966.84;4977214;28;20441;-74
2021/08/16 09:11:50;;;;;;;9.75;7.35;;;;;;;27.00;30.48;93973.81;4978399;28;20368;-75
2021/08/16 09:14:15;;;;;;;12.30;7.38;;;;;;;27.21;29.82;93973.50;4976783;28;20050;-74
2021/08/16 09:16:43;;;;;;;9.50;6.60;;;;;;;27.29;30.17;93961.25;4977746;28;20653;-74
2021/08/16 09:19:16;;;;;;;12.88;6.72;;;;;;;27.22;29.76;93966.84;4976231;28;20042;-75
2021/08/16 09:21:46;;;;;;;12.63;7.00;;;;;;;27.05;30.17;93943.34;4994427;28;20070;-74
2021/08/16 09:24:12;;;;;;;8.23;6.45;;;;;;;27.08;29.68;93958.91;4976788;28;20046;-74
2021/08/16 09:26:39;;;;;;;9.13;7.15;;;;;;;27.24;29.35;93955.50;4976767;28;20370;-74
2021/08/16 09:29:16;;;;;;;8.38;6.43;;;;;;;27.34;29.83;93951.81;4973968;28;20027;-74
2021/08/16 09:32:05;;;;;;;8.07;7.20;;;;;;;27.42;29.67;93956.72;4979022;28;20022;-74
2021/08/16 09:34:32;;;;;;;16.10;7.13;;;;;;;27.61;29.80;93951.78;4976731;28;20069;-74
2021/08/16 09:37:01;;;;;;;13.75;6.75;;;;;;;27.32;29.24;93935.88;4992510;28;20054;-74
2021/08/16 09:39:29;;;;;;;9.65;5.88;;;;;;;27.32;28.92;93943.28;4975899;28;20050;-74
2021/08/16 09:42:03;;;;;;;7.45;6.18;;;;;;;27.01;29.32;93948.06;4978412;28;20092;-75
2021/08/16 09:44:29;;;;;;;9.45;6.22;;;;;;;27.28;29.00;93940.59;4990711;28;20132;-74
2021/08/16 09:47:05;;;;;;;11.77;6.15;;;;;;;27.36;30.50;93925.66;4978401;28;20030;-74
2021/08/16 09:49:32;;;;;;;9.45;6.15;;;;;;;27.42;29.34;93934.88;4976088;28;20496;-74
2021/08/16 09:52:08;;;;;;;8.55;6.47;;;;;;;27.58;31.27;93936.19;4974770;28;20148;-74
2021/08/16 09:54:35;;;;;;;11.05;7.05;;;;;;;27.47;29.77;93914.53;4976244;28;20543;-74
2021/08/16 09:57:02;;;;;;;12.63;7.30;;;;;;;27.53;28.88;93923.00;4975920;28;20571;-74
2021/08/16 09:59:29;;;;;;;8.18;6.22;;;;;;;27.82;30.86;93929.50;4975547;28;20088;-75
2021/08/16 10:01:55;;;;;;;15.48;6.65;;;;;;;27.85;30.08;93928.66;4977770;28;20516;-74
2021/08/16 10:04:21;;;;;;;8.57;6.13;;;;;;;27.85;28.17;93911.50;4976029;28;20703;-74
2021/08/16 10:06:48;;;;;;;11.25;6.50;;;;;;;27.96;29.44;93912.81;4990256;28;20043;-74
2021/08/16 10:09:17;;;;;;;10.38;6.85;;;;;;;27.83;28.20;93917.38;4979047;28;20478;-74
2021/08/16 10:11:43;;;;;;;10.30;6.13;;;;;;;27.55;28.18;93906.97;4975401;28;20062;-74
2021/08/16 10:14:08;;;;;;;7.68;6.85;;;;;;;27.54;28.27;93903.47;4974838;28;20065;-75
2021/08/16 10:16:39;;;;;;;10.13;7.10;;;;;;;27.44;28.28;93893.50;4977895;28;20052;-74
2021/08/16 10:19:09;;;;;;;9.32;6.82;;;;;;;27.66;29.19;93891.19;4976730;28;20093;-74
2021/08/16 10:21:37;;;;;;;10.40;7.35;;;;;;;27.85;28.12;93892.38;4977011;28;20041;-74
2021/08/16 10:24:14;;;;;;;8.00;6.55;;;;;;;27.84;27.79;93888.84;4975375;28;20081;-75
2021/08/16 10:26:39;;;;;;;11.60;6.50;;;;;;;28.04;27.71;93886.88;4974981;28;20576;-74
2021/08/16 10:29:06;;;;;;;8.82;5.88;;;;;;;28.16;28.27;93888.97;4977459;28;20164;-74
2021/08/16 10:31:35;;;;;;;8.90;6.35;;;;;;;28.01;27.60;93886.97;4974747;28;20481;-75
2021/08/16 10:34:02;;;;;;;11.32;5.97;;;;;;;28.12;31.88;93882.03;4977385;28;20405;-73
2021/08/16 10:36:27;;;;;;;9.68;6.15;;;;;;;28.28;28.11;93884.81;4976354;28;20037;-74
2021/08/16 10:38:56;;;;;;;8.18;6.50;;;;;;;28.32;27.55;93884.75;4976090;28;20038;-74
2021/08/16 10:41:26;;;;;;;7.13;6.43;;;;;;;28.16;27.43;93886.25;4970177;28;20405;-75
2021/08/16 10:43:51;;;;;;;9.43;6.75;;;;;;;28.28;27.44;93884.06;4957860;28;20109;-74
2021/08/16 10:46:21;;;;;;;10.63;7.05;;;;;;;28.16;26.84;93878.03;4977143;28;20026;-73
2021/08/16 10:48:57;;;;;;;9.43;6.78;;;;;;;28.09;27.54;93878.19;4973625;28;20137;-74
2021/08/16 10:51:23;;;;;;;8.25;6.20;;;;;;;28.19;27.82;93874.47;4977131;28;20042;-74
2021/08/16 10:53:53;;;;;;;7.40;6.28;;;;;;;28.37;28.34;93856.88;4969951;28;20030;-73
2021/08/16 10:56:25;;;;;;;7.55;6.30;;;;;;;28.37;26.82;93870.56;4975607;28;20045;-75
2021/08/16 10:58:53;;;;;;;19.77;7.22;;;;;;;28.46;27.22;93876.22;4975251;28;21141;-73
2021/08/16 11:01:33;;;;;;;7.38;6.30;;;;;;;28.52;27.54;93856.13;4977075;28;20045;-74
2021/08/16 11:04:01;;;;;;;9.27;6.25;;;;;;;28.59;27.13;93863.41;4973133;28;20124;-75
2021/08/16 11:06:27;;;;;;;8.57;6.05;;;;;;;28.53;26.94;93845.97;4978315;28;20058;-75
2021/08/16 11:09:05;;;;;;;18.73;7.03;;;;;;;28.57;27.01;93860.31;4974852;28;20058;-74
2021/08/16 11:11:35;;;;;;;7.90;6.70;;;;;;;28.55;26.75;93849.81;4974446;28;20034;-75
2021/08/16 11:14:11;;;;;;;11.88;6.45;;;;;;;28.81;28.64;93831.63;4975997;28;20030;-73
2021/08/16 11:16:51;;;;;;;7.50;6.00;;;;;;;28.99;27.30;93829.19;4976817;28;20031;-74
2021/08/16 11:19:17;;;;;;;8.73;6.25;;;;;;;29.12;27.08;93842.19;4973472;28;20057;-74
2021/08/16 11:22:01;;;;;;;6.20;5.45;;;;;;;29.07;26.33;93836.03;4977382;28;20038;-74
2021/08/16 11:24:35;;;;;;;;;;;;;;;29.10;26.33;93835.16;4974132;28;20045;-74
2021/08/16 11:27:01;;;;;;;8.30;5.95;;;;;;;29.17;26.23;93817.06;4976285;28;20290;-74